sensor_id;sensor_type;location;lat;lon;timestamp;P1;durP1;ratioP1;P2;durP2;ratioP2
25023;SDS011;13033;50.936;5.334;2023-05-14T00:01:24;10.43;;;8.75;;
25023;SDS011;13033;50.936;5.334;2023-05-14T00:03:49;10.50;;;8.48;;
25023;SDS011;13033;50.936;5.334;2023-05-14T00:06:15;12.13;;;9.52;;
25023;SDS011;13033;50.936;5.334;2023-05-14T00:08:41;12.10;;;8.65;;
25023;SDS011;13033;50.936;5.334;2023-05-14T00:11:06;13.30;;;9.38;;
25023;SDS011;13033;50.936;5.334;2023-05-14T00:13:33;10.50;;;9.40;;
25023;SDS011;13033;50.936;5.334;2023-05-14T00:15:59;11.45;;;9.98;;
25023;SDS011;13033;50.936;5.334;2023-05-14T00:18:25;14.30;;;10.32;;
25023;SDS011;13033;50.936;5.334;2023-05-14T00:20:50;11.70;;;9.55;;
25023;SDS011;13033;50.936;5.334;2023-05-14T00:23:18;12.88;;;9.45;;
25023;SDS011;13033;50.936;5.334;2023-05-14T00:25:47;11.65;;;9.75;;
25023;SDS011;13033;50.936;5.334;2023-05-14T00:28:13;13.30;;;10.77;;
25023;SDS011;13033;50.936;5.334;2023-05-14T00:30:38;14.20;;;10.20;;
25023;SDS011;13033;50.936;5.334;2023-05-14T00:33:04;12.40;;;11.02;;
25023;SDS011;13033;50.936;5.334;2023-05-14T00:35:30;13.02;;;10.75;;
25023;SDS011;13033;50.936;5.334;2023-05-14T00:37:59;12.80;;;11.00;;
25023;SDS011;13033;50.936;5.334;2023-05-14T00:40:25;15.93;;;10.65;;
25023;SDS011;13033;50.936;5.334;2023-05-14T00:42:52;13.50;;;11.02;;
25023;SDS011;13033;50.936;5.334;2023-05-14T00:45:18;13.57;;;10.85;;
25023;SDS011;13033;50.936;5.334;2023-05-14T00:47:43;14.90;;;11.20;;
25023;SDS011;13033;50.936;5.334;2023-05-14T00:50:09;15.10;;;12.05;;
25023;SDS011;13033;50.936;5.334;2023-05-14T00:52:36;13.63;;;11.07;;
25023;SDS011;13033;50.936;5.334;2023-05-14T00:55:03;13.52;;;11.48;;
25023;SDS011;13033;50.936;5.334;2023-05-14T00:57:31;14.02;;;11.95;;
25023;SDS011;13033;50.936;5.334;2023-05-14T01:00:00;14.50;;;12.35;;
25023;SDS011;13033;50.936;5.334;2023-05-14T01:02:27;14.18;;;12.70;;
25023;SDS011;13033;50.936;5.334;2023-05-14T01:04:53;17.75;;;12.80;;
25023;SDS011;13033;50.936;5.334;2023-05-14T01:09:58;21.15;;;12.82;;
25023;SDS011;13033;50.936;5.334;2023-05-14T01:15:18;15.50;;;13.32;;
25023;SDS011;13033;50.936;5.334;2023-05-14T01:20:15;14.25;;;12.52;;
25023;SDS011;13033;50.936;5.334;2023-05-14T01:22:41;15.00;;;13.32;;
25023;SDS011;13033;50.936;5.334;2023-05-14T01:25:07;16.17;;;13.80;;
25023;SDS011;13033;50.936;5.334;2023-05-14T01:27:49;15.05;;;13.52;;
25023;SDS011;13033;50.936;5.334;2023-05-14T01:33:10;18.48;;;13.60;;
25023;SDS011;13033;50.936;5.334;2023-05-14T01:35:38;17.85;;;13.18;;
25023;SDS011;13033;50.936;5.334;2023-05-14T01:38:06;15.27;;;13.63;;
25023;SDS011;13033;50.936;5.334;2023-05-14T01:40:35;19.15;;;14.15;;
25023;SDS011;13033;50.936;5.334;2023-05-14T01:43:02;17.17;;;14.18;;
25023;SDS011;13033;50.936;5.334;2023-05-14T01:45:28;17.02;;;14.05;;
25023;SDS011;13033;50.936;5.334;2023-05-14T01:47:55;16.77;;;13.85;;
25023;SDS011;13033;50.936;5.334;2023-05-14T01:50:21;20.15;;;14.40;;
25023;SDS011;13033;50.936;5.334;2023-05-14T01:52:46;22.55;;;14.50;;
25023;SDS011;13033;50.936;5.334;2023-05-14T01:55:12;17.67;;;14.23;;
25023;SDS011;13033;50.936;5.334;2023-05-14T01:57:39;18.08;;;15.27;;
25023;SDS011;13033;50.936;5.334;2023-05-14T02:00:05;19.23;;;14.50;;
25023;SDS011;13033;50.936;5.334;2023-05-14T02:02:31;20.55;;;14.73;;
25023;SDS011;13033;50.936;5.334;2023-05-14T02:04:56;16.00;;;14.25;;
25023;SDS011;13033;50.936;5.334;2023-05-14T02:07:22;18.02;;;14.50;;
25023;SDS011;13033;50.936;5.334;2023-05-14T02:09:47;18.95;;;14.88;;
25023;SDS011;13033;50.936;5.334;2023-05-14T02:12:13;17.15;;;15.18;;
25023;SDS011;13033;50.936;5.334;2023-05-14T02:14:39;19.63;;;15.40;;
25023;SDS011;13033;50.936;5.334;2023-05-14T02:17:05;18.90;;;15.85;;
25023;SDS011;13033;50.936;5.334;2023-05-14T02:19:30;18.75;;;15.85;;
25023;SDS011;13033;50.936;5.334;2023-05-14T02:21:57;19.23;;;14.95;;
25023;SDS011;13033;50.936;5.334;2023-05-14T02:24:23;19.05;;;15.38;;
25023;SDS011;13033;50.936;5.334;2023-05-14T02:26:49;20.40;;;16.27;;
25023;SDS011;13033;50.936;5.334;2023-05-14T02:29:14;22.85;;;16.25;;
25023;SDS011;13033;50.936;5.334;2023-05-14T02:31:40;18.38;;;16.48;;
25023;SDS011;13033;50.936;5.334;2023-05-14T02:34:05;18.95;;;16.05;;
25023;SDS011;13033;50.936;5.334;2023-05-14T02:36:31;22.65;;;18.15;;
25023;SDS011;13033;50.936;5.334;2023-05-14T02:38:57;20.27;;;16.42;;
25023;SDS011;13033;50.936;5.334;2023-05-14T02:41:25;21.15;;;17.50;;
25023;SDS011;13033;50.936;5.334;2023-05-14T02:43:51;19.30;;;16.63;;
25023;SDS011;13033;50.936;5.334;2023-05-14T02:46:17;22.35;;;17.33;;
25023;SDS011;13033;50.936;5.334;2023-05-14T02:48:43;21.40;;;17.30;;
25023;SDS011;13033;50.936;5.334;2023-05-14T02:51:09;21.00;;;18.27;;
25023;SDS011;13033;50.936;5.334;2023-05-14T02:53:35;21.92;;;18.33;;
25023;SDS011;13033;50.936;5.334;2023-05-14T02:56:00;19.88;;;17.77;;
25023;SDS011;13033;50.936;5.334;2023-05-14T02:58:26;26.67;;;18.60;;
25023;SDS011;13033;50.936;5.334;2023-05-14T03:00:52;23.50;;;18.02;;
25023;SDS011;13033;50.936;5.334;2023-05-14T03:03:17;21.30;;;19.00;;
25023;SDS011;13033;50.936;5.334;2023-05-14T03:05:43;25.42;;;20.35;;
25023;SDS011;13033;50.936;5.334;2023-05-14T03:08:09;24.27;;;20.23;;
25023;SDS011;13033;50.936;5.334;2023-05-14T03:10:35;26.42;;;19.83;;
25023;SDS011;13033;50.936;5.334;2023-05-14T03:13:01;24.02;;;20.23;;
25023;SDS011;13033;50.936;5.334;2023-05-14T03:15:26;26.95;;;21.02;;
25023;SDS011;13033;50.936;5.334;2023-05-14T03:17:52;24.33;;;20.52;;
25023;SDS011;13033;50.936;5.334;2023-05-14T03:20:18;31.38;;;20.90;;
25023;SDS011;13033;50.936;5.334;2023-05-14T03:22:44;28.63;;;21.73;;
25023;SDS011;13033;50.936;5.334;2023-05-14T03:25:10;27.48;;;21.92;;
25023;SDS011;13033;50.936;5.334;2023-05-14T03:27:35;27.67;;;21.27;;
25023;SDS011;13033;50.936;5.334;2023-05-14T03:30:01;27.48;;;21.88;;
25023;SDS011;13033;50.936;5.334;2023-05-14T03:32:27;26.48;;;21.38;;
25023;SDS011;13033;50.936;5.334;2023-05-14T03:34:54;27.08;;;21.70;;
25023;SDS011;13033;50.936;5.334;2023-05-14T03:37:22;25.90;;;20.90;;
25023;SDS011;13033;50.936;5.334;2023-05-14T03:39:48;25.58;;;20.48;;
25023;SDS011;13033;50.936;5.334;2023-05-14T03:42:14;25.77;;;20.95;;
25023;SDS011;13033;50.936;5.334;2023-05-14T03:44:39;24.67;;;21.98;;
25023;SDS011;13033;50.936;5.334;2023-05-14T03:47:05;25.77;;;23.05;;
25023;SDS011;13033;50.936;5.334;2023-05-14T03:49:30;29.10;;;22.33;;
25023;SDS011;13033;50.936;5.334;2023-05-14T03:51:56;28.27;;;22.45;;
25023;SDS011;13033;50.936;5.334;2023-05-14T03:54:23;29.77;;;23.23;;
25023;SDS011;13033;50.936;5.334;2023-05-14T03:56:49;30.30;;;24.10;;
25023;SDS011;13033;50.936;5.334;2023-05-14T03:59:15;30.88;;;25.52;;
25023;SDS011;13033;50.936;5.334;2023-05-14T04:01:42;34.70;;;27.58;;
25023;SDS011;13033;50.936;5.334;2023-05-14T04:04:08;33.45;;;26.33;;
25023;SDS011;13033;50.936;5.334;2023-05-14T04:06:34;35.30;;;28.08;;
25023;SDS011;13033;50.936;5.334;2023-05-14T04:09:00;37.08;;;29.10;;
25023;SDS011;13033;50.936;5.334;2023-05-14T04:11:26;40.63;;;31.98;;
25023;SDS011;13033;50.936;5.334;2023-05-14T04:13:51;42.58;;;32.47;;
25023;SDS011;13033;50.936;5.334;2023-05-14T04:16:17;40.75;;;33.92;;
25023;SDS011;13033;50.936;5.334;2023-05-14T04:18:42;43.65;;;34.95;;
25023;SDS011;13033;50.936;5.334;2023-05-14T04:21:08;44.92;;;35.25;;
25023;SDS011;13033;50.936;5.334;2023-05-14T04:23:34;46.15;;;36.58;;
25023;SDS011;13033;50.936;5.334;2023-05-14T04:25:59;52.30;;;37.67;;
25023;SDS011;13033;50.936;5.334;2023-05-14T04:28:25;52.20;;;36.95;;
25023;SDS011;13033;50.936;5.334;2023-05-14T04:30:50;51.15;;;38.05;;
25023;SDS011;13033;50.936;5.334;2023-05-14T04:33:16;51.20;;;38.97;;
25023;SDS011;13033;50.936;5.334;2023-05-14T04:35:42;46.85;;;37.70;;
25023;SDS011;13033;50.936;5.334;2023-05-14T04:38:09;49.20;;;38.30;;
25023;SDS011;13033;50.936;5.334;2023-05-14T04:40:35;53.28;;;40.40;;
25023;SDS011;13033;50.936;5.334;2023-05-14T04:43:01;52.70;;;39.22;;
25023;SDS011;13033;50.936;5.334;2023-05-14T04:45:27;52.85;;;39.20;;
25023;SDS011;13033;50.936;5.334;2023-05-14T04:47:52;52.28;;;40.20;;
25023;SDS011;13033;50.936;5.334;2023-05-14T04:50:18;50.95;;;39.38;;
25023;SDS011;13033;50.936;5.334;2023-05-14T04:52:44;52.78;;;39.05;;
25023;SDS011;13033;50.936;5.334;2023-05-14T04:55:09;52.63;;;38.65;;
25023;SDS011;13033;50.936;5.334;2023-05-14T04:57:35;54.40;;;40.08;;
25023;SDS011;13033;50.936;5.334;2023-05-14T05:00:01;54.08;;;40.45;;
25023;SDS011;13033;50.936;5.334;2023-05-14T05:02:29;51.65;;;40.65;;
25023;SDS011;13033;50.936;5.334;2023-05-14T05:04:55;59.88;;;42.25;;
25023;SDS011;13033;50.936;5.334;2023-05-14T05:07:21;54.00;;;41.53;;
25023;SDS011;13033;50.936;5.334;2023-05-14T05:09:46;55.53;;;41.75;;
25023;SDS011;13033;50.936;5.334;2023-05-14T05:12:12;53.20;;;42.03;;
25023;SDS011;13033;50.936;5.334;2023-05-14T05:14:38;50.75;;;41.33;;
25023;SDS011;13033;50.936;5.334;2023-05-14T05:17:03;56.40;;;41.05;;
25023;SDS011;13033;50.936;5.334;2023-05-14T05:19:29;56.92;;;40.85;;
25023;SDS011;13033;50.936;5.334;2023-05-14T05:21:54;51.88;;;41.80;;
25023;SDS011;13033;50.936;5.334;2023-05-14T05:24:20;49.78;;;40.30;;
25023;SDS011;13033;50.936;5.334;2023-05-14T05:26:46;55.20;;;41.63;;
25023;SDS011;13033;50.936;5.334;2023-05-14T05:29:11;52.50;;;40.67;;
25023;SDS011;13033;50.936;5.334;2023-05-14T05:31:37;55.63;;;40.80;;
25023;SDS011;13033;50.936;5.334;2023-05-14T05:34:03;51.42;;;41.53;;
25023;SDS011;13033;50.936;5.334;2023-05-14T05:36:28;52.15;;;41.78;;
25023;SDS011;13033;50.936;5.334;2023-05-14T05:38:54;53.20;;;42.30;;
25023;SDS011;13033;50.936;5.334;2023-05-14T05:41:20;56.50;;;41.67;;
25023;SDS011;13033;50.936;5.334;2023-05-14T05:43:46;52.17;;;41.15;;
25023;SDS011;13033;50.936;5.334;2023-05-14T05:46:12;54.10;;;42.28;;
25023;SDS011;13033;50.936;5.334;2023-05-14T05:48:37;52.63;;;41.00;;
25023;SDS011;13033;50.936;5.334;2023-05-14T05:51:03;53.38;;;41.75;;
25023;SDS011;13033;50.936;5.334;2023-05-14T05:53:29;53.03;;;41.28;;
25023;SDS011;13033;50.936;5.334;2023-05-14T05:55:54;54.50;;;43.20;;
25023;SDS011;13033;50.936;5.334;2023-05-14T05:58:20;57.42;;;43.08;;
25023;SDS011;13033;50.936;5.334;2023-05-14T06:00:46;57.20;;;43.95;;
25023;SDS011;13033;50.936;5.334;2023-05-14T06:03:12;56.05;;;43.03;;
25023;SDS011;13033;50.936;5.334;2023-05-14T06:05:37;57.53;;;44.55;;
25023;SDS011;13033;50.936;5.334;2023-05-14T06:08:03;57.10;;;43.17;;
25023;SDS011;13033;50.936;5.334;2023-05-14T06:10:29;57.33;;;42.35;;
25023;SDS011;13033;50.936;5.334;2023-05-14T06:12:55;53.65;;;42.22;;
25023;SDS011;13033;50.936;5.334;2023-05-14T06:15:21;55.65;;;43.30;;
25023;SDS011;13033;50.936;5.334;2023-05-14T06:17:47;57.97;;;43.03;;
25023;SDS011;13033;50.936;5.334;2023-05-14T06:20:12;56.30;;;43.60;;
25023;SDS011;13033;50.936;5.334;2023-05-14T06:22:38;53.28;;;42.25;;
25023;SDS011;13033;50.936;5.334;2023-05-14T06:25:04;50.97;;;41.55;;
25023;SDS011;13033;50.936;5.334;2023-05-14T06:27:30;53.15;;;40.97;;
25023;SDS011;13033;50.936;5.334;2023-05-14T06:29:56;51.67;;;40.70;;
25023;SDS011;13033;50.936;5.334;2023-05-14T06:32:21;55.22;;;41.65;;
25023;SDS011;13033;50.936;5.334;2023-05-14T06:34:47;50.88;;;42.10;;
25023;SDS011;13033;50.936;5.334;2023-05-14T06:37:13;53.42;;;42.25;;
25023;SDS011;13033;50.936;5.334;2023-05-14T06:39:38;48.50;;;40.78;;
25023;SDS011;13033;50.936;5.334;2023-05-14T06:42:04;50.47;;;41.53;;
25023;SDS011;13033;50.936;5.334;2023-05-14T06:44:31;50.50;;;40.35;;
25023;SDS011;13033;50.936;5.334;2023-05-14T06:46:56;53.13;;;40.10;;
25023;SDS011;13033;50.936;5.334;2023-05-14T06:49:22;52.35;;;40.08;;
25023;SDS011;13033;50.936;5.334;2023-05-14T06:51:48;47.75;;;39.25;;
25023;SDS011;13033;50.936;5.334;2023-05-14T06:54:13;49.58;;;37.63;;
25023;SDS011;13033;50.936;5.334;2023-05-14T06:56:39;45.63;;;37.33;;
25023;SDS011;13033;50.936;5.334;2023-05-14T06:59:04;47.22;;;37.58;;
25023;SDS011;13033;50.936;5.334;2023-05-14T07:01:30;46.08;;;36.22;;
25023;SDS011;13033;50.936;5.334;2023-05-14T07:03:56;44.85;;;36.25;;
25023;SDS011;13033;50.936;5.334;2023-05-14T07:06:21;44.63;;;38.50;;
25023;SDS011;13033;50.936;5.334;2023-05-14T07:08:47;46.40;;;38.35;;
25023;SDS011;13033;50.936;5.334;2023-05-14T07:11:13;51.25;;;36.58;;
25023;SDS011;13033;50.936;5.334;2023-05-14T07:13:39;46.25;;;37.47;;
25023;SDS011;13033;50.936;5.334;2023-05-14T07:16:05;43.65;;;34.55;;
25023;SDS011;13033;50.936;5.334;2023-05-14T07:18:33;45.40;;;36.67;;
25023;SDS011;13033;50.936;5.334;2023-05-14T07:20:59;42.78;;;35.75;;
25023;SDS011;13033;50.936;5.334;2023-05-14T07:23:24;48.58;;;34.58;;
25023;SDS011;13033;50.936;5.334;2023-05-14T07:25:50;42.63;;;35.58;;
25023;SDS011;13033;50.936;5.334;2023-05-14T07:28:16;42.22;;;34.17;;
25023;SDS011;13033;50.936;5.334;2023-05-14T07:30:41;44.40;;;36.47;;
25023;SDS011;13033;50.936;5.334;2023-05-14T07:33:07;45.58;;;35.30;;
25023;SDS011;13033;50.936;5.334;2023-05-14T07:35:33;46.17;;;34.97;;
25023;SDS011;13033;50.936;5.334;2023-05-14T07:37:58;43.75;;;33.80;;
25023;SDS011;13033;50.936;5.334;2023-05-14T07:40:24;44.33;;;35.83;;
25023;SDS011;13033;50.936;5.334;2023-05-14T07:42:50;43.25;;;34.97;;
25023;SDS011;13033;50.936;5.334;2023-05-14T07:45:16;47.63;;;35.63;;
25023;SDS011;13033;50.936;5.334;2023-05-14T07:47:41;44.05;;;35.60;;
25023;SDS011;13033;50.936;5.334;2023-05-14T07:50:07;45.88;;;34.38;;
25023;SDS011;13033;50.936;5.334;2023-05-14T07:52:33;41.33;;;35.15;;
25023;SDS011;13033;50.936;5.334;2023-05-14T07:54:59;41.25;;;34.22;;
25023;SDS011;13033;50.936;5.334;2023-05-14T07:57:26;44.25;;;35.50;;
25023;SDS011;13033;50.936;5.334;2023-05-14T07:59:51;39.53;;;32.88;;
25023;SDS011;13033;50.936;5.334;2023-05-14T08:02:17;41.80;;;33.78;;
25023;SDS011;13033;50.936;5.334;2023-05-14T08:04:43;42.53;;;33.05;;
25023;SDS011;13033;50.936;5.334;2023-05-14T08:07:09;41.05;;;33.60;;
25023;SDS011;13033;50.936;5.334;2023-05-14T08:09:35;41.08;;;33.35;;
25023;SDS011;13033;50.936;5.334;2023-05-14T08:12:01;37.47;;;31.10;;
25023;SDS011;13033;50.936;5.334;2023-05-14T08:14:26;37.70;;;30.20;;
25023;SDS011;13033;50.936;5.334;2023-05-14T08:16:52;42.35;;;30.98;;
25023;SDS011;13033;50.936;5.334;2023-05-14T08:19:18;32.47;;;28.80;;
25023;SDS011;13033;50.936;5.334;2023-05-14T08:21:44;38.78;;;31.50;;
25023;SDS011;13033;50.936;5.334;2023-05-14T08:24:10;39.10;;;31.95;;
25023;SDS011;13033;50.936;5.334;2023-05-14T08:26:36;35.90;;;29.95;;
25023;SDS011;13033;50.936;5.334;2023-05-14T08:29:02;37.88;;;29.02;;
25023;SDS011;13033;50.936;5.334;2023-05-14T08:31:28;35.20;;;28.52;;
25023;SDS011;13033;50.936;5.334;2023-05-14T08:33:54;36.00;;;28.73;;
25023;SDS011;13033;50.936;5.334;2023-05-14T08:36:20;35.53;;;28.92;;
25023;SDS011;13033;50.936;5.334;2023-05-14T08:38:45;33.60;;;28.83;;
25023;SDS011;13033;50.936;5.334;2023-05-14T08:41:12;34.88;;;29.95;;
25023;SDS011;13033;50.936;5.334;2023-05-14T08:46:22;38.17;;;28.60;;
25023;SDS011;13033;50.936;5.334;2023-05-14T08:48:57;36.33;;;29.10;;
25023;SDS011;13033;50.936;5.334;2023-05-14T08:51:28;37.25;;;28.75;;
25023;SDS011;13033;50.936;5.334;2023-05-14T08:53:55;36.90;;;28.70;;
25023;SDS011;13033;50.936;5.334;2023-05-14T08:56:26;33.50;;;28.05;;
25023;SDS011;13033;50.936;5.334;2023-05-14T08:58:52;35.92;;;27.85;;
25023;SDS011;13033;50.936;5.334;2023-05-14T09:01:17;35.70;;;29.08;;
25023;SDS011;13033;50.936;5.334;2023-05-14T09:03:43;34.38;;;27.80;;
25023;SDS011;13033;50.936;5.334;2023-05-14T09:06:09;32.35;;;26.95;;
25023;SDS011;13033;50.936;5.334;2023-05-14T09:08:36;31.55;;;26.15;;
25023;SDS011;13033;50.936;5.334;2023-05-14T09:11:02;31.63;;;27.15;;
25023;SDS011;13033;50.936;5.334;2023-05-14T09:13:28;32.90;;;27.80;;
25023;SDS011;13033;50.936;5.334;2023-05-14T09:15:55;34.03;;;25.85;;
25023;SDS011;13033;50.936;5.334;2023-05-14T09:18:21;34.45;;;26.10;;
25023;SDS011;13033;50.936;5.334;2023-05-14T09:20:47;31.48;;;25.70;;
25023;SDS011;13033;50.936;5.334;2023-05-14T09:23:13;29.58;;;24.10;;
25023;SDS011;13033;50.936;5.334;2023-05-14T09:25:39;29.40;;;25.65;;
25023;SDS011;13033;50.936;5.334;2023-05-14T09:28:05;29.58;;;23.77;;
25023;SDS011;13033;50.936;5.334;2023-05-14T09:30:32;32.42;;;24.35;;
25023;SDS011;13033;50.936;5.334;2023-05-14T09:32:59;31.60;;;25.38;;
25023;SDS011;13033;50.936;5.334;2023-05-14T09:35:25;30.60;;;24.40;;
25023;SDS011;13033;50.936;5.334;2023-05-14T09:37:52;28.83;;;24.02;;
25023;SDS011;13033;50.936;5.334;2023-05-14T09:40:21;31.55;;;24.00;;
25023;SDS011;13033;50.936;5.334;2023-05-14T09:42:48;28.15;;;23.65;;
25023;SDS011;13033;50.936;5.334;2023-05-14T09:45:14;32.78;;;24.85;;
25023;SDS011;13033;50.936;5.334;2023-05-14T09:47:40;27.30;;;23.17;;
25023;SDS011;13033;50.936;5.334;2023-05-14T09:50:06;31.88;;;23.95;;
25023;SDS011;13033;50.936;5.334;2023-05-14T09:52:33;30.10;;;24.42;;
25023;SDS011;13033;50.936;5.334;2023-05-14T09:55:00;30.10;;;24.83;;
25023;SDS011;13033;50.936;5.334;2023-05-14T09:57:26;32.97;;;24.45;;
25023;SDS011;13033;50.936;5.334;2023-05-14T09:59:52;29.45;;;23.42;;
25023;SDS011;13033;50.936;5.334;2023-05-14T10:02:21;29.17;;;24.02;;
25023;SDS011;13033;50.936;5.334;2023-05-14T10:04:49;29.10;;;23.55;;
25023;SDS011;13033;50.936;5.334;2023-05-14T10:07:16;29.27;;;22.65;;
25023;SDS011;13033;50.936;5.334;2023-05-14T10:09:46;25.25;;;22.58;;
25023;SDS011;13033;50.936;5.334;2023-05-14T10:12:13;30.17;;;23.48;;
25023;SDS011;13033;50.936;5.334;2023-05-14T10:14:46;33.20;;;22.75;;
25023;SDS011;13033;50.936;5.334;2023-05-14T10:17:17;29.38;;;22.73;;
25023;SDS011;13033;50.936;5.334;2023-05-14T10:19:49;26.85;;;23.10;;
25023;SDS011;13033;50.936;5.334;2023-05-14T10:22:18;29.95;;;21.55;;
25023;SDS011;13033;50.936;5.334;2023-05-14T10:24:47;30.60;;;21.95;;
25023;SDS011;13033;50.936;5.334;2023-05-14T10:27:16;30.05;;;23.08;;
25023;SDS011;13033;50.936;5.334;2023-05-14T10:29:47;25.42;;;21.48;;
25023;SDS011;13033;50.936;5.334;2023-05-14T10:32:19;27.55;;;21.80;;
25023;SDS011;13033;50.936;5.334;2023-05-14T10:34:46;26.98;;;22.33;;
25023;SDS011;13033;50.936;5.334;2023-05-14T10:39:51;30.33;;;21.40;;
25023;SDS011;13033;50.936;5.334;2023-05-14T10:42:32;24.77;;;19.48;;
25023;SDS011;13033;50.936;5.334;2023-05-14T10:45:00;26.02;;;21.13;;
25023;SDS011;13033;50.936;5.334;2023-05-14T10:47:30;23.05;;;20.20;;
25023;SDS011;13033;50.936;5.334;2023-05-14T10:49:57;31.88;;;22.23;;
25023;SDS011;13033;50.936;5.334;2023-05-14T10:52:24;26.40;;;19.52;;
25023;SDS011;13033;50.936;5.334;2023-05-14T10:54:51;22.35;;;19.17;;
25023;SDS011;13033;50.936;5.334;2023-05-14T10:57:18;26.80;;;19.08;;
25023;SDS011;13033;50.936;5.334;2023-05-14T10:59:47;21.77;;;17.77;;
25023;SDS011;13033;50.936;5.334;2023-05-14T11:05:01;21.02;;;16.88;;
25023;SDS011;13033;50.936;5.334;2023-05-14T11:07:34;24.88;;;16.25;;
25023;SDS011;13033;50.936;5.334;2023-05-14T11:10:05;21.20;;;18.50;;
25023;SDS011;13033;50.936;5.334;2023-05-14T11:12:33;23.60;;;17.67;;
25023;SDS011;13033;50.936;5.334;2023-05-14T11:15:00;20.02;;;16.65;;
25023;SDS011;13033;50.936;5.334;2023-05-14T11:17:28;22.88;;;17.98;;
25023;SDS011;13033;50.936;5.334;2023-05-14T11:19:55;18.67;;;15.15;;
25023;SDS011;13033;50.936;5.334;2023-05-14T11:22:22;19.63;;;15.35;;
25023;SDS011;13033;50.936;5.334;2023-05-14T11:24:48;18.00;;;14.75;;
25023;SDS011;13033;50.936;5.334;2023-05-14T11:27:14;18.08;;;14.13;;
25023;SDS011;13033;50.936;5.334;2023-05-14T11:29:44;20.52;;;14.63;;
25023;SDS011;13033;50.936;5.334;2023-05-14T11:32:11;20.92;;;14.23;;
25023;SDS011;13033;50.936;5.334;2023-05-14T11:34:37;18.55;;;14.48;;
25023;SDS011;13033;50.936;5.334;2023-05-14T11:37:07;20.10;;;15.63;;
25023;SDS011;13033;50.936;5.334;2023-05-14T11:39:33;17.95;;;14.57;;
25023;SDS011;13033;50.936;5.334;2023-05-14T11:42:01;15.95;;;13.25;;
25023;SDS011;13033;50.936;5.334;2023-05-14T11:44:28;16.05;;;13.48;;
25023;SDS011;13033;50.936;5.334;2023-05-14T11:46:54;17.75;;;14.00;;
25023;SDS011;13033;50.936;5.334;2023-05-14T11:49:24;14.85;;;12.35;;
25023;SDS011;13033;50.936;5.334;2023-05-14T11:51:56;14.43;;;12.63;;
25023;SDS011;13033;50.936;5.334;2023-05-14T11:54:24;13.07;;;11.68;;
25023;SDS011;13033;50.936;5.334;2023-05-14T11:56:51;15.13;;;12.50;;
25023;SDS011;13033;50.936;5.334;2023-05-14T11:59:16;14.50;;;12.75;;
25023;SDS011;13033;50.936;5.334;2023-05-14T12:01:45;14.57;;;12.27;;
25023;SDS011;13033;50.936;5.334;2023-05-14T12:04:11;14.30;;;12.77;;
25023;SDS011;13033;50.936;5.334;2023-05-14T12:06:38;15.40;;;11.73;;
25023;SDS011;13033;50.936;5.334;2023-05-14T12:09:04;16.85;;;12.43;;
25023;SDS011;13033;50.936;5.334;2023-05-14T12:11:30;16.25;;;12.73;;
25023;SDS011;13033;50.936;5.334;2023-05-14T12:13:57;19.88;;;12.27;;
25023;SDS011;13033;50.936;5.334;2023-05-14T12:16:28;17.30;;;13.48;;
25023;SDS011;13033;50.936;5.334;2023-05-14T12:19:00;16.45;;;12.05;;
25023;SDS011;13033;50.936;5.334;2023-05-14T12:21:26;11.27;;;10.05;;
25023;SDS011;13033;50.936;5.334;2023-05-14T12:23:57;14.98;;;12.00;;
25023;SDS011;13033;50.936;5.334;2023-05-14T12:26:24;16.75;;;11.40;;
25023;SDS011;13033;50.936;5.334;2023-05-14T12:28:55;13.25;;;10.15;;
25023;SDS011;13033;50.936;5.334;2023-05-14T12:31:26;18.15;;;9.48;;
25023;SDS011;13033;50.936;5.334;2023-05-14T12:33:53;12.95;;;10.55;;
25023;SDS011;13033;50.936;5.334;2023-05-14T12:36:19;20.35;;;11.45;;
25023;SDS011;13033;50.936;5.334;2023-05-14T12:38:44;16.20;;;11.90;;
25023;SDS011;13033;50.936;5.334;2023-05-14T12:41:10;15.73;;;11.50;;
25023;SDS011;13033;50.936;5.334;2023-05-14T12:43:36;17.13;;;13.00;;
25023;SDS011;13033;50.936;5.334;2023-05-14T12:46:01;16.52;;;12.52;;
25023;SDS011;13033;50.936;5.334;2023-05-14T12:48:27;15.55;;;11.95;;
25023;SDS011;13033;50.936;5.334;2023-05-14T12:50:52;14.93;;;12.02;;
25023;SDS011;13033;50.936;5.334;2023-05-14T12:53:18;15.20;;;11.25;;
25023;SDS011;13033;50.936;5.334;2023-05-14T12:55:44;17.27;;;12.73;;
25023;SDS011;13033;50.936;5.334;2023-05-14T12:58:09;21.33;;;12.85;;
25023;SDS011;13033;50.936;5.334;2023-05-14T13:00:35;15.70;;;11.73;;
25023;SDS011;13033;50.936;5.334;2023-05-14T13:03:00;16.25;;;10.80;;
25023;SDS011;13033;50.936;5.334;2023-05-14T13:05:26;12.38;;;10.88;;
25023;SDS011;13033;50.936;5.334;2023-05-14T13:07:52;12.35;;;10.60;;
25023;SDS011;13033;50.936;5.334;2023-05-14T13:10:17;12.82;;;10.98;;
25023;SDS011;13033;50.936;5.334;2023-05-14T13:12:43;11.05;;;9.88;;
25023;SDS011;13033;50.936;5.334;2023-05-14T13:15:09;11.38;;;9.85;;
25023;SDS011;13033;50.936;5.334;2023-05-14T13:17:35;14.02;;;10.82;;
25023;SDS011;13033;50.936;5.334;2023-05-14T13:20:01;14.57;;;11.63;;
25023;SDS011;13033;50.936;5.334;2023-05-14T13:22:26;14.32;;;11.07;;
25023;SDS011;13033;50.936;5.334;2023-05-14T13:24:52;18.15;;;12.25;;
25023;SDS011;13033;50.936;5.334;2023-05-14T13:27:18;10.63;;;9.38;;
25023;SDS011;13033;50.936;5.334;2023-05-14T13:29:43;13.85;;;10.63;;
25023;SDS011;13033;50.936;5.334;2023-05-14T13:32:09;13.35;;;11.07;;
25023;SDS011;13033;50.936;5.334;2023-05-14T13:34:35;13.82;;;10.88;;
25023;SDS011;13033;50.936;5.334;2023-05-14T13:37:00;16.20;;;10.48;;
25023;SDS011;13033;50.936;5.334;2023-05-14T13:39:26;14.32;;;10.25;;
25023;SDS011;13033;50.936;5.334;2023-05-14T13:41:53;13.15;;;9.82;;
25023;SDS011;13033;50.936;5.334;2023-05-14T13:44:20;12.13;;;9.77;;
25023;SDS011;13033;50.936;5.334;2023-05-14T13:46:46;13.10;;;10.10;;
25023;SDS011;13033;50.936;5.334;2023-05-14T13:49:12;14.02;;;10.48;;
25023;SDS011;13033;50.936;5.334;2023-05-14T13:51:37;12.13;;;9.50;;
25023;SDS011;13033;50.936;5.334;2023-05-14T13:54:03;15.65;;;10.25;;
25023;SDS011;13033;50.936;5.334;2023-05-14T13:56:28;12.80;;;10.65;;
25023;SDS011;13033;50.936;5.334;2023-05-14T13:58:54;11.70;;;9.90;;
25023;SDS011;13033;50.936;5.334;2023-05-14T14:01:20;12.23;;;9.45;;
25023;SDS011;13033;50.936;5.334;2023-05-14T14:03:47;10.57;;;8.90;;
25023;SDS011;13033;50.936;5.334;2023-05-14T14:06:12;11.45;;;7.70;;
25023;SDS011;13033;50.936;5.334;2023-05-14T14:08:38;11.68;;;7.45;;
25023;SDS011;13033;50.936;5.334;2023-05-14T14:11:04;8.63;;;7.07;;
25023;SDS011;13033;50.936;5.334;2023-05-14T14:13:30;10.15;;;7.43;;
25023;SDS011;13033;50.936;5.334;2023-05-14T14:15:55;9.60;;;7.43;;
25023;SDS011;13033;50.936;5.334;2023-05-14T14:18:21;13.63;;;8.68;;
25023;SDS011;13033;50.936;5.334;2023-05-14T14:20:46;12.73;;;9.25;;
25023;SDS011;13033;50.936;5.334;2023-05-14T14:23:12;11.30;;;9.23;;
25023;SDS011;13033;50.936;5.334;2023-05-14T14:25:38;12.50;;;8.88;;
25023;SDS011;13033;50.936;5.334;2023-05-14T14:28:03;12.75;;;10.05;;
25023;SDS011;13033;50.936;5.334;2023-05-14T14:30:29;12.43;;;9.07;;
25023;SDS011;13033;50.936;5.334;2023-05-14T14:32:56;13.23;;;8.90;;
25023;SDS011;13033;50.936;5.334;2023-05-14T14:35:22;11.98;;;8.95;;
25023;SDS011;13033;50.936;5.334;2023-05-14T14:37:47;11.77;;;8.25;;